createdAt,value
2023-04-23T00:01:05.692Z,82279.59
2023-04-23T00:03:36.480Z,82277.17
2023-04-23T00:06:08.106Z,82275.96
2023-04-23T00:08:35.170Z,82273.22
2023-04-23T00:11:01.835Z,82274.51
2023-04-23T00:13:28.669Z,82272.74
2023-04-23T00:15:55.760Z,82267.30
2023-04-23T00:18:22.459Z,82268.77
2023-04-23T00:20:49.261Z,82269.05
2023-04-23T00:23:15.877Z,82266.01
2023-04-23T00:25:42.641Z,82266.02
2023-04-23T00:28:09.221Z,82265.06
2023-04-23T00:30:35.769Z,82263.35
2023-04-23T00:33:02.471Z,82262.60
2023-04-23T00:35:29.094Z,82264.27
2023-04-23T00:37:55.813Z,82263.16
2023-04-23T00:40:23.617Z,82262.25
2023-04-23T00:42:53.627Z,82264.80
2023-04-23T00:45:20.699Z,82261.36
2023-04-23T00:47:48.076Z,82260.70
2023-04-23T00:50:15.997Z,82260.61
2023-04-23T00:52:44.470Z,82262.21
2023-04-23T00:55:13.506Z,82266.66
2023-04-23T00:57:43.361Z,82266.08
2023-04-23T01:00:14.299Z,82265.90
2023-04-23T01:02:43.815Z,82265.20
2023-04-23T01:05:13.075Z,82264.14
2023-04-23T01:07:41.512Z,82263.58
2023-04-23T01:10:10.164Z,82264.64
2023-04-23T01:12:39.711Z,82261.27
2023-04-23T01:15:09.284Z,82260.96
2023-04-23T01:17:38.499Z,82264.80
2023-04-23T01:20:08.640Z,82261.98
2023-04-23T01:22:38.877Z,82261.38
2023-04-23T01:25:08.329Z,82260.74
2023-04-23T01:27:38.753Z,82257.04
2023-04-23T01:30:07.941Z,82259.25
2023-04-23T01:32:37.356Z,82251.73
2023-04-23T01:35:07.280Z,82255.18
2023-04-23T01:37:36.994Z,82251.75
2023-04-23T01:40:06.784Z,82254.50
2023-04-23T01:42:35.845Z,82248.77
2023-04-23T01:45:05.061Z,82247.71
2023-04-23T01:47:34.199Z,82246.85
2023-04-23T01:57:24.476Z,82237.90
2023-04-23T01:59:51.017Z,82238.83
2023-04-23T02:02:17.817Z,82230.82
2023-04-23T02:04:45.022Z,82234.35
2023-04-23T02:07:11.879Z,82232.05
2023-04-23T02:09:38.485Z,82230.27
2023-04-23T02:12:05.266Z,82225.63
2023-04-23T02:14:31.878Z,82223.08
2023-04-23T02:16:58.579Z,82232.70
2023-04-23T02:19:25.187Z,82230.34
2023-04-23T02:21:51.762Z,82224.36
2023-04-23T02:24:18.685Z,82220.61
2023-04-23T02:26:45.466Z,82217.96
2023-04-23T02:29:12.055Z,82210.00
2023-04-23T02:31:38.965Z,82211.64
2023-04-23T02:34:05.542Z,82213.44
2023-04-23T02:36:32.557Z,82215.91
2023-04-23T02:38:59.757Z,82214.61
2023-04-23T02:41:26.456Z,82218.35
2023-04-23T02:43:52.941Z,82216.76
2023-04-23T02:46:19.451Z,82212.09
2023-04-23T02:48:46.690Z,82208.00
2023-04-23T02:51:14.051Z,82208.93
2023-04-23T02:53:40.658Z,82206.21
2023-04-23T02:56:07.868Z,82202.52
2023-04-23T02:58:34.565Z,82198.63
2023-04-23T03:01:01.302Z,82199.20
2023-04-23T03:03:32.402Z,82198.05
2023-04-23T03:06:00.701Z,82188.59
2023-04-23T03:08:27.900Z,82185.71
2023-04-23T03:10:54.496Z,82180.31
2023-04-23T03:13:21.395Z,82181.25
2023-04-23T03:15:48.527Z,82166.50
2023-04-23T03:18:15.128Z,82172.73
2023-04-23T03:20:42.665Z,82172.71
2023-04-23T03:23:09.412Z,82171.77
2023-04-23T03:25:35.939Z,82181.08
2023-04-23T03:28:02.765Z,82181.94
2023-04-23T03:30:29.709Z,82173.43
2023-04-23T03:32:59.610Z,82183.81
2023-04-23T03:35:28.774Z,82179.45
2023-04-23T03:37:56.483Z,82176.23
2023-04-23T03:40:23.486Z,82181.13
2023-04-23T03:42:52.764Z,82182.27
2023-04-23T03:45:24.288Z,82179.10
2023-04-23T03:47:51.330Z,82177.80
2023-04-23T03:50:18.093Z,82178.96
2023-04-23T03:52:47.071Z,82178.35
2023-04-23T03:55:20.918Z,82185.20
2023-04-23T03:57:48.032Z,82183.34
2023-04-23T04:00:23.468Z,82184.20
2023-04-23T04:02:50.041Z,82187.75
2023-04-23T04:05:16.822Z,82189.86
2023-04-23T04:07:45.472Z,82188.55
2023-04-23T04:10:12.092Z,82195.19
2023-04-23T04:12:38.696Z,82198.56
2023-04-23T04:15:09.602Z,82198.77
2023-04-23T04:17:36.250Z,82200.04
2023-04-23T04:20:02.926Z,82195.05
2023-04-23T04:22:29.670Z,82199.20
2023-04-23T04:24:57.647Z,82201.94
2023-04-23T04:27:24.223Z,82200.23
2023-04-23T04:29:51.898Z,82198.58
2023-04-23T04:34:45.537Z,82195.83
2023-04-23T04:37:13.039Z,82195.61
2023-04-23T04:39:40.180Z,82196.39
2023-04-23T04:42:07.411Z,82191.05
2023-04-23T04:44:34.459Z,82190.14
2023-04-23T04:47:01.817Z,82184.73
2023-04-23T04:49:28.465Z,82176.88
2023-04-23T04:51:54.988Z,82181.95
2023-04-23T04:54:22.085Z,82179.14
2023-04-23T04:56:48.677Z,82179.95
2023-04-23T04:59:15.279Z,82181.60
2023-04-23T05:01:41.745Z,82177.92
2023-04-23T05:04:08.463Z,82173.02
2023-04-23T05:06:35.446Z,82167.71
2023-04-23T05:09:02.047Z,82165.99
2023-04-23T05:11:28.546Z,82172.64
2023-04-23T05:13:55.056Z,82174.67
2023-04-23T05:16:21.790Z,82175.63
2023-04-23T05:18:48.331Z,82176.55
2023-04-23T05:21:15.882Z,82179.52
2023-04-23T05:23:42.627Z,82181.22
2023-04-23T05:26:09.129Z,82181.95
2023-04-23T05:28:36.236Z,82180.90
2023-04-23T05:31:03.338Z,82179.76
2023-04-23T05:33:33.399Z,82182.08
2023-04-23T05:36:03.209Z,82185.54
2023-04-23T05:38:29.809Z,82178.10
2023-04-23T05:40:56.479Z,82187.05
2023-04-23T05:43:22.983Z,82189.14
2023-04-23T05:45:49.653Z,82188.50
2023-04-23T05:48:16.568Z,82192.87
2023-04-23T05:50:43.296Z,82190.31
2023-04-23T05:53:09.877Z,82193.92
2023-04-23T05:55:36.556Z,82194.41
2023-04-23T05:58:02.999Z,82192.78
2023-04-23T06:00:29.576Z,82196.78
2023-04-23T06:02:56.296Z,82201.77
2023-04-23T06:05:23.164Z,82204.63
2023-04-23T06:07:50.074Z,82203.25
2023-04-23T06:10:16.537Z,82201.77
2023-04-23T06:12:43.337Z,82207.45
2023-04-23T06:15:10.181Z,82208.67
2023-04-23T06:17:37.080Z,82210.56
2023-04-23T06:20:05.326Z,82199.70
2023-04-23T06:22:32.800Z,82199.95
2023-04-23T06:24:59.816Z,82198.99
2023-04-23T06:27:27.285Z,82196.82
2023-04-23T06:29:54.109Z,82199.22
2023-04-23T06:32:21.581Z,82196.10
2023-04-23T06:35:00.033Z,82194.29
2023-04-23T06:37:29.841Z,82198.77
2023-04-23T06:39:56.799Z,82202.91
2023-04-23T06:42:23.461Z,82199.75
2023-04-23T06:45:06.240Z,82204.77
2023-04-23T06:47:33.456Z,82201.33
2023-04-23T06:50:00.449Z,82204.53
2023-04-23T06:52:27.351Z,82200.98
2023-04-23T06:54:53.931Z,82186.60
2023-04-23T06:57:22.144Z,82183.86
2023-04-23T06:59:48.853Z,82191.94
2023-04-23T07:02:16.411Z,82194.11
2023-04-23T07:04:43.358Z,82196.60
2023-04-23T07:07:10.350Z,82197.60
2023-04-23T07:09:37.016Z,82198.00
2023-04-23T07:12:03.943Z,82195.17
2023-04-23T07:14:30.468Z,82194.61
2023-04-23T07:16:57.259Z,82188.95
2023-04-23T07:19:23.882Z,82188.54
2023-04-23T07:21:51.007Z,82186.37
2023-04-23T07:24:17.682Z,82188.27
2023-04-23T07:26:45.007Z,82182.81
2023-04-23T07:29:11.852Z,82175.86
2023-04-23T07:31:39.565Z,82177.14
2023-04-23T07:34:06.730Z,82172.25
2023-04-23T07:36:33.635Z,82165.45
2023-04-23T07:39:00.474Z,82171.21
2023-04-23T07:41:27.130Z,82170.66
2023-04-23T07:43:53.634Z,82168.69
2023-04-23T07:46:20.683Z,82171.88
2023-04-23T07:48:47.425Z,82173.96
2023-04-23T07:51:14.162Z,82177.34
2023-04-23T07:53:41.333Z,82172.59
2023-04-23T07:56:07.803Z,82171.27
2023-04-23T07:58:35.566Z,82176.16
2023-04-23T08:01:02.596Z,82175.88
2023-04-23T08:03:29.349Z,82173.18
2023-04-23T08:05:56.962Z,82170.16
2023-04-23T08:08:23.470Z,82174.73
2023-04-23T08:10:49.964Z,82175.57
2023-04-23T08:13:16.555Z,82175.69
2023-04-23T08:15:43.050Z,82173.34
2023-04-23T08:18:09.841Z,82179.52
2023-04-23T08:20:36.314Z,82178.23
2023-04-23T08:23:04.055Z,82177.00
2023-04-23T08:25:31.087Z,82174.68
2023-04-23T08:27:57.731Z,82175.36
2023-04-23T08:30:24.435Z,82173.69
2023-04-23T08:32:53.993Z,82173.83
2023-04-23T08:35:20.822Z,82171.84
2023-04-23T08:37:47.443Z,82173.14
2023-04-23T08:40:14.010Z,82177.19
2023-04-23T08:42:44.250Z,82177.61
2023-04-23T08:45:11.166Z,82177.20
2023-04-23T08:47:45.092Z,82175.95
2023-04-23T08:50:13.180Z,82177.90
2023-04-23T08:53:04.677Z,82174.02
2023-04-23T08:55:31.473Z,82177.50
2023-04-23T08:57:58.263Z,82175.00
2023-04-23T09:00:26.072Z,82175.95
2023-04-23T09:02:52.774Z,82178.02
2023-04-23T09:05:19.597Z,82182.89
2023-04-23T09:07:46.234Z,82179.98
2023-04-23T09:10:14.826Z,82178.60
2023-04-23T09:12:43.588Z,82176.54
2023-04-23T09:15:11.990Z,82172.73
2023-04-23T09:17:41.207Z,82171.05
2023-04-23T09:20:11.465Z,82168.46
2023-04-23T09:22:56.893Z,82167.65
2023-04-23T09:25:24.170Z,82164.20
2023-04-23T09:27:52.123Z,82157.33
2023-04-23T09:30:19.106Z,82157.99
2023-04-23T09:32:46.579Z,82149.23
2023-04-23T09:35:15.618Z,82145.35
2023-04-23T09:37:50.586Z,82153.63
2023-04-23T09:40:20.100Z,82150.48
2023-04-23T09:42:51.078Z,82151.02
2023-04-23T09:45:17.701Z,82148.60
2023-04-23T09:47:51.967Z,82150.14
2023-04-23T09:50:19.880Z,82151.36
2023-04-23T09:52:57.109Z,82146.61
2023-04-23T09:55:36.007Z,82146.19
2023-04-23T09:58:06.830Z,82143.70
2023-04-23T10:00:37.554Z,82144.02
2023-04-23T10:03:04.912Z,82142.24
2023-04-23T10:05:37.314Z,82143.30
2023-04-23T10:08:14.080Z,82142.79
2023-04-23T10:10:55.160Z,82145.55
2023-04-23T10:13:26.953Z,82142.81
2023-04-23T10:15:53.532Z,82144.41
2023-04-23T10:18:20.211Z,82143.34
2023-04-23T10:20:46.711Z,82137.85
2023-04-23T10:23:13.203Z,82138.61
2023-04-23T10:25:39.684Z,82135.45
2023-04-23T10:28:08.228Z,82133.73
2023-04-23T10:30:36.164Z,82124.00
2023-04-23T10:33:02.836Z,82125.92
2023-04-23T10:35:29.972Z,82127.48
2023-04-23T10:37:56.611Z,82124.08
2023-04-23T10:40:26.911Z,82122.91
2023-04-23T10:42:53.437Z,82119.85
2023-04-23T10:45:24.690Z,82115.98
2023-04-23T10:47:53.743Z,82116.94
2023-04-23T10:50:28.311Z,82108.44
2023-04-23T10:52:57.373Z,82115.41
2023-04-23T10:55:28.887Z,82119.11
2023-04-23T10:58:01.903Z,82117.21
2023-04-23T11:00:41.885Z,82121.01
2023-04-23T11:03:43.929Z,82121.14
2023-04-23T11:06:15.735Z,82121.36
2023-04-23T11:08:53.965Z,82113.94
2023-04-23T11:11:26.375Z,82112.27
2023-04-23T11:13:55.910Z,82107.30
2023-04-23T11:16:23.549Z,82112.42
2023-04-23T11:19:03.987Z,82104.80
2023-04-23T11:22:06.661Z,82109.95
2023-04-23T11:24:41.612Z,82104.94
2023-04-23T11:27:10.709Z,82102.70
2023-04-23T11:29:41.572Z,82102.54
2023-04-23T11:32:11.048Z,82099.29
2023-04-23T11:34:43.199Z,82092.66
2023-04-23T11:37:11.151Z,82095.19
2023-04-23T11:39:38.511Z,82092.15
2023-04-23T11:42:06.556Z,82086.30
2023-04-23T11:44:33.152Z,82082.66
2023-04-23T11:47:02.795Z,82082.52
2023-04-23T11:49:29.465Z,82081.50
2023-04-23T11:51:56.113Z,82075.71
2023-04-23T11:54:27.635Z,82070.46
2023-04-23T11:56:55.004Z,82067.89
2023-04-23T11:59:21.557Z,82063.95
2023-04-23T12:01:50.524Z,82066.86
2023-04-23T12:04:20.238Z,82066.75
2023-04-23T12:06:47.919Z,82070.51
2023-04-23T12:09:15.406Z,82070.22
2023-04-23T12:11:42.741Z,82066.80
2023-04-23T12:14:10.309Z,82060.95
2023-04-23T12:16:38.841Z,82066.52
2023-04-23T12:26:31.589Z,82048.02
2023-04-23T12:29:00.033Z,82043.09
2023-04-23T12:31:30.543Z,82042.95
2023-04-23T12:34:04.246Z,82040.70
2023-04-23T12:36:31.622Z,82037.41
2023-04-23T12:39:23.439Z,82035.38
2023-04-23T12:42:06.723Z,82036.50
2023-04-23T12:44:37.222Z,82037.15
2023-04-23T12:47:11.607Z,82038.38
2023-04-23T12:49:39.551Z,82032.59
2023-04-23T12:52:06.561Z,82024.15
2023-04-23T12:54:38.110Z,82027.46
2023-04-23T12:57:05.666Z,82030.21
2023-04-23T12:59:32.480Z,82020.59
2023-04-23T13:02:02.532Z,82027.98
2023-04-23T13:04:30.999Z,82022.03
2023-04-23T13:06:57.470Z,82020.37
2023-04-23T13:09:26.775Z,82014.23
2023-04-23T13:11:53.860Z,82011.75
2023-04-23T13:14:21.461Z,82006.30
2023-04-23T13:16:48.161Z,82002.02
2023-04-23T13:19:17.494Z,82001.13
2023-04-23T13:21:44.962Z,82002.42
2023-04-23T13:24:11.671Z,81996.76
2023-04-23T13:26:38.218Z,82001.38
2023-04-23T13:29:04.842Z,81993.38
2023-04-23T13:31:31.532Z,81990.61
2023-04-23T13:33:58.318Z,81983.39
2023-04-23T13:36:25.258Z,81979.48
2023-04-23T13:38:51.890Z,81972.86
2023-04-23T13:41:18.385Z,81978.52
2023-04-23T13:43:45.194Z,81973.07
2023-04-23T13:50:32.904Z,81953.16
2023-04-23T13:52:59.903Z,81947.27
2023-04-23T13:55:26.394Z,81947.13
2023-04-23T13:57:57.830Z,81950.73
2023-04-23T14:00:26.700Z,81950.74
2023-04-23T14:02:53.327Z,81948.29
2023-04-23T14:05:20.132Z,81946.73
2023-04-23T14:07:46.865Z,81940.02
2023-04-23T14:10:13.462Z,81940.77
2023-04-23T14:12:40.231Z,81943.88
2023-04-23T14:15:08.405Z,81943.21
2023-04-23T14:17:35.701Z,81940.13
2023-04-23T14:20:02.170Z,81936.77
2023-04-23T14:22:30.195Z,81934.19
2023-04-23T14:25:01.508Z,81926.16
2023-04-23T14:27:28.694Z,81930.25
2023-04-23T14:29:55.224Z,81931.42
2023-04-23T14:32:21.953Z,81923.12
2023-04-23T14:34:48.669Z,81920.77
2023-04-23T14:37:17.315Z,81915.00
2023-04-23T14:39:44.218Z,81915.14
2023-04-23T14:42:11.362Z,81919.75
2023-04-23T14:44:38.217Z,81921.63
2023-04-23T14:47:08.091Z,81920.40
2023-04-23T14:49:34.731Z,81915.31
2023-04-23T14:52:01.307Z,81916.41
2023-04-23T14:54:27.910Z,81912.27
2023-04-23T14:56:54.477Z,81903.05
2023-04-23T14:59:21.413Z,81914.48
2023-04-23T15:01:47.977Z,81915.45
2023-04-23T15:07:46.288Z,81916.41
2023-04-23T15:10:13.035Z,81917.23
2023-04-23T15:12:48.656Z,81917.30
2023-04-23T15:15:36.894Z,81910.88
2023-04-23T15:18:07.925Z,81903.15
2023-04-23T15:20:34.519Z,81903.48
2023-04-23T15:23:01.076Z,81900.32
2023-04-23T15:25:27.574Z,81896.33
2023-04-23T15:27:57.878Z,81901.23
2023-04-23T15:30:26.125Z,81889.72
2023-04-23T15:32:55.386Z,81887.73
2023-04-23T15:35:23.070Z,81886.10
2023-04-23T15:37:49.917Z,81889.64
2023-04-23T15:40:16.984Z,81889.63
2023-04-23T15:42:44.755Z,81885.31
2023-04-23T15:45:12.000Z,81886.37
2023-04-23T15:47:38.745Z,81888.17
2023-04-23T15:50:05.997Z,81884.27
2023-04-23T15:52:32.630Z,81880.33
2023-04-23T15:54:59.859Z,81879.23
2023-04-23T15:57:26.446Z,81880.21
2023-04-23T15:59:55.722Z,81876.49
2023-04-23T16:02:22.641Z,81874.81
2023-04-23T16:04:51.388Z,81876.21
2023-04-23T16:07:18.110Z,81876.69
2023-04-23T16:09:44.722Z,81879.40
2023-04-23T16:12:12.672Z,81877.46
2023-04-23T16:14:40.056Z,81875.11
2023-04-23T16:17:06.594Z,81873.14
2023-04-23T16:19:33.645Z,81873.61
2023-04-23T16:22:00.378Z,81875.50
2023-04-23T16:24:26.919Z,81876.23
2023-04-23T16:26:53.960Z,81875.23
2023-04-23T16:29:22.686Z,81873.82
2023-04-23T16:31:50.434Z,81880.13
2023-04-23T16:34:17.130Z,81882.11
2023-04-23T16:36:43.717Z,81886.69
2023-04-23T16:39:11.421Z,81886.88
2023-04-23T16:41:38.303Z,81888.10
2023-04-23T16:44:05.103Z,81898.75
2023-04-23T16:46:32.056Z,81900.52
2023-04-23T16:48:59.164Z,81895.73
2023-04-23T16:51:27.140Z,81891.15
2023-04-23T16:53:54.113Z,81892.30
2023-04-23T16:56:21.351Z,81897.30
2023-04-23T16:58:48.020Z,81899.66
2023-04-23T17:01:15.624Z,81899.80
2023-04-23T17:03:42.710Z,81905.64
2023-04-23T17:06:11.480Z,81911.61
2023-04-23T17:08:38.605Z,81909.79
2023-04-23T17:11:06.235Z,81910.27
2023-04-23T17:13:33.203Z,81902.79
2023-04-23T17:15:59.706Z,81899.39
2023-04-23T17:18:26.200Z,81898.45
2023-04-23T17:20:52.897Z,81891.74
2023-04-23T17:23:19.474Z,81888.87
2023-04-23T17:25:46.891Z,81886.95
2023-04-23T17:28:13.582Z,81884.73
2023-04-23T17:30:40.223Z,81890.33
2023-04-23T17:33:07.010Z,81884.98
2023-04-23T17:35:33.665Z,81879.74
2023-04-23T17:38:00.237Z,81871.68
2023-04-23T17:40:26.968Z,81869.91
2023-04-23T17:42:53.660Z,81860.70
2023-04-23T17:45:20.157Z,81853.66
2023-04-23T17:47:46.834Z,81847.05
2023-04-23T17:50:13.410Z,81838.27
2023-04-23T17:52:44.255Z,81835.83
2023-04-23T17:55:10.921Z,81826.79
2023-04-23T17:57:37.642Z,81821.31
2023-04-23T18:00:09.802Z,81819.55
2023-04-23T18:02:42.290Z,81817.84
2023-04-23T18:05:09.800Z,81815.23
2023-04-23T18:07:36.999Z,81812.33
2023-04-23T18:10:04.435Z,81813.45
2023-04-23T18:12:31.547Z,81810.39
2023-04-23T18:14:58.127Z,81809.84
2023-04-23T18:17:25.688Z,81808.25
2023-04-23T18:19:53.046Z,81809.20
2023-04-23T18:22:19.825Z,81804.56
2023-04-23T18:24:46.544Z,81804.14
2023-04-23T18:27:13.105Z,81806.23
2023-04-23T18:29:43.160Z,81804.45
2023-04-23T18:32:10.956Z,81805.19
2023-04-23T18:34:38.936Z,81809.79
2023-04-23T18:37:09.023Z,81811.47
2023-04-23T18:39:35.614Z,81812.38
2023-04-23T18:42:03.145Z,81810.63
2023-04-23T18:44:30.055Z,81815.13
2023-04-23T18:46:56.985Z,81811.37
2023-04-23T18:49:29.519Z,81822.70
2023-04-23T18:51:56.106Z,81826.36
2023-04-23T18:54:25.353Z,81830.58
2023-04-23T18:56:53.491Z,81833.38
2023-04-23T18:59:20.211Z,81832.79
2023-04-23T19:01:48.256Z,81835.39
2023-04-23T19:04:15.333Z,81835.65
2023-04-23T19:06:42.416Z,81837.58
2023-04-23T19:09:09.131Z,81835.38
2023-04-23T19:11:37.116Z,81840.17
2023-04-23T19:14:06.425Z,81845.79
2023-04-23T19:16:33.082Z,81844.34
2023-04-23T19:18:59.692Z,81844.11
2023-04-23T19:21:26.415Z,81848.83
2023-04-23T19:23:54.297Z,81856.41
2023-04-23T19:26:20.912Z,81855.34
2023-04-23T19:28:47.362Z,81852.77
2023-04-23T19:31:13.895Z,81853.23
2023-04-23T19:33:42.711Z,81853.29
2023-04-23T19:36:10.359Z,81852.59
2023-04-23T19:38:37.350Z,81854.95
2023-04-23T19:41:03.839Z,81856.39
2023-04-23T19:43:30.331Z,81856.12
2023-04-23T19:45:56.945Z,81852.85
2023-04-23T19:48:23.405Z,81849.37
2023-04-23T19:50:50.082Z,81850.63
2023-04-23T19:53:16.997Z,81854.48
2023-04-23T19:55:43.458Z,81854.73
2023-04-23T19:58:09.984Z,81857.80
2023-04-23T20:00:39.520Z,81855.48
2023-04-23T20:03:07.799Z,81855.56
2023-04-23T20:05:34.782Z,81851.11
2023-04-23T20:08:04.360Z,81854.55
2023-04-23T20:10:31.656Z,81857.99
2023-04-23T20:12:59.693Z,81860.64
2023-04-23T20:15:26.277Z,81861.29
2023-04-23T20:17:52.827Z,81864.39
2023-04-23T20:20:21.708Z,81867.84
2023-04-23T20:22:48.685Z,81869.91
2023-04-23T20:25:15.320Z,81869.82
2023-04-23T20:27:41.798Z,81864.89
2023-04-23T20:30:10.101Z,81862.05
2023-04-23T20:32:36.941Z,81850.62
2023-04-23T20:35:03.744Z,81856.69
2023-04-23T20:37:30.323Z,81861.67
2023-04-23T20:39:58.482Z,81863.48
2023-04-23T20:42:25.981Z,81861.65
2023-04-23T20:44:52.678Z,81858.63
2023-04-23T20:47:19.316Z,81860.83
2023-04-23T20:49:46.040Z,81863.82
2023-04-23T20:52:14.646Z,81862.88
2023-04-23T20:54:42.338Z,81865.58
2023-04-23T20:57:09.024Z,81863.70
2023-04-23T20:59:35.495Z,81858.77
2023-04-23T21:02:02.293Z,81857.86
2023-04-23T21:04:29.035Z,81858.28
2023-04-23T21:06:56.312Z,81857.18
2023-04-23T21:09:23.022Z,81852.06
2023-04-23T21:11:51.139Z,81854.75
2023-04-23T21:14:17.629Z,81859.47
2023-04-23T21:16:44.368Z,81856.33
2023-04-23T21:19:11.005Z,81858.36
2023-04-23T21:21:37.697Z,81858.75
2023-04-23T21:24:04.307Z,81871.94
2023-04-23T21:26:31.112Z,81869.48
2023-04-23T21:28:57.718Z,81863.16
2023-04-23T21:31:45.741Z,81860.63
2023-04-23T21:34:13.973Z,81860.86
2023-04-23T21:36:40.564Z,81860.46
2023-04-23T21:39:08.100Z,81859.50
2023-04-23T21:41:34.844Z,81857.73
2023-04-23T21:44:01.637Z,81858.91
2023-04-23T21:46:28.166Z,81857.75
2023-04-23T21:48:54.740Z,81859.02
2023-04-23T21:51:22.463Z,81853.70
2023-04-23T21:53:49.378Z,81852.01
2023-04-23T21:56:16.286Z,81854.08
2023-04-23T21:58:43.687Z,81855.49
2023-04-23T22:01:10.568Z,81855.40
2023-04-23T22:03:42.408Z,81853.70
2023-04-23T22:06:09.822Z,81854.20
2023-04-23T22:11:05.823Z,81859.48
2023-04-23T22:13:32.453Z,81862.96
2023-04-23T22:15:59.215Z,81855.02
2023-04-23T22:18:26.365Z,81860.88
2023-04-23T22:20:53.186Z,81857.06
2023-04-23T22:23:19.844Z,81858.23
2023-04-23T22:25:46.343Z,81857.95
2023-04-23T22:28:12.870Z,81863.00
2023-04-23T22:30:39.426Z,81860.33
2023-04-23T22:33:06.319Z,81857.71
2023-04-23T22:35:33.082Z,81861.71
2023-04-23T22:38:00.211Z,81863.64
2023-04-23T22:40:26.722Z,81862.70
2023-04-23T22:42:53.182Z,81865.98
2023-04-23T22:45:19.686Z,81865.76
2023-04-23T22:47:46.858Z,81861.54
2023-04-23T22:50:13.668Z,81861.73
2023-04-23T22:52:40.681Z,81859.25
2023-04-23T22:55:08.203Z,81855.36
2023-04-23T22:57:35.343Z,81852.73
2023-04-23T23:00:02.249Z,81850.73
2023-04-23T23:02:28.974Z,81851.49
2023-04-23T23:04:56.021Z,81852.45
2023-04-23T23:07:22.800Z,81845.32
2023-04-23T23:09:49.306Z,81839.48
2023-04-23T23:12:15.964Z,81838.48
2023-04-23T23:14:43.299Z,81835.34
2023-04-23T23:17:09.882Z,81838.61
2023-04-23T23:19:36.670Z,81838.92
2023-04-23T23:22:04.049Z,81833.20
2023-04-23T23:24:30.683Z,81824.31
2023-04-23T23:26:57.324Z,81820.18
2023-04-23T23:29:23.890Z,81812.48
2023-04-23T23:31:50.383Z,81811.39
2023-04-23T23:34:16.982Z,81810.42
2023-04-23T23:36:45.179Z,81808.19
2023-04-23T23:39:12.928Z,81803.63
2023-04-23T23:41:39.493Z,81802.09
2023-04-23T23:44:06.428Z,81800.57
2023-04-23T23:46:33.063Z,81797.02
2023-04-23T23:48:59.787Z,81795.63
2023-04-23T23:51:26.376Z,81793.43
2023-04-23T23:53:52.841Z,81794.50
2023-04-23T23:56:20.261Z,81791.83
2023-04-23T23:58:47.479Z,81781.63
